Flight Track Log - Related Links

Times and Time Zones

All times are in EDT time to prevent confusion due to time zone crossing. See the EJM826 flight status page for this flight to view local times or setup timezone preferences in your user account.

Time Position Orientation Groundspeed Altitude Reporting Facility
EDT Latitude Longitude Course Direction KTS km/h feet Rate Location/Type
Tue 13:51:51 45.3881 -85.0111 180° South 247 457 3.600  Level Minneapolis Center
Tue 13:52:53 45.3269 -85.0628 211° Southwest 255 472 6.600 2.390 Climbing Minneapolis Center
Tue 13:53:00 45.0663 -85.2169 209° Southwest  Level FlightAware Approximate
Tue 13:53:54 45.2744 -85.1092 212° Southwest 263 488 8.500  Level Minneapolis Center
Tue 13:54:00 44.9630 -85.2989 209° Southwest  Level FlightAware Approximate
Tue 13:54:57 45.1739 -85.1972 212° Southwest 289 536 12.100  Level Minneapolis Center
Tue 13:55:00 44.8596 -85.3805 209° Southwest  Level FlightAware Approximate
Tue 13:55:59 45.0981 -85.2608 211° Southwest 302 560 14.400  Level Minneapolis Center
Tue 13:56:00 44.7561 -85.4619 209° Southwest  Level FlightAware Approximate
Tue 13:57:00 44.6575 -85.5500 180° South  Level FlightAware Approximate
Tue 13:57:01 45.0197 -85.3267 211° Southwest 314 581 16.400  Level Minneapolis Center
Tue 13:58:03 44.9394 -85.3944 211° Southwest 329 610 18.600 2.032 Climbing Minneapolis Center
Tue 13:59:05 44.8561 -85.4644 211° Southwest 344 637 20.600 1.790 Climbing Minneapolis Center
Tue 14:00:07 44.7722 -85.5356 211° Southwest 352 652 22.300 1.790 Climbing Minneapolis Center
Tue 14:01:09 44.6692 -85.6219 211° Southwest 358 663 24.300 1.728 Climbing Minneapolis Center
Tue 14:02:12 44.5800 -85.6969 211° Southwest 370 686 25.900 1.440 Climbing Minneapolis Center
Tue 14:03:14 44.4878 -85.7725 210° Southwest 379 702 27.300 1.306 Climbing Minneapolis Center
Tue 14:04:16 44.3950 -85.8500 211° Southwest 386 715 28.600 1.258 Climbing Minneapolis Center
Tue 14:05:18 44.2992 -85.9292 211° Southwest 397 735 29.900 1.258 Climbing Minneapolis Center
Tue 14:06:20 44.2025 -86.0103 211° Southwest 403 747 31.200 1.258 Climbing Minneapolis Center
Tue 14:07:22 44.0908 -86.1019 211° Southwest 415 769 32.500 1.452 Climbing Minneapolis Center
Tue 14:08:24 43.9908 -86.1842 211° Southwest 419 776 34.200 1.403 Climbing Minneapolis Center
Tue 14:09:26 43.8917 -86.2653 211° Southwest 411 761 35.400 1.167 Climbing Minneapolis Center
Tue 14:10:12 43.8156 -86.3278 211° Southwest 412 763 36.300 1.111 Climbing Chicago Center
Tue 14:11:14 43.7189 -86.4056 210° Southwest 406 752 37.400 968 Climbing Chicago Center
Tue 14:12:16 43.6219 -86.4839 210° Southwest 405 750 38.300 823 Climbing Chicago Center
Tue 14:13:18 43.5244 -86.5644 211° Southwest 410 760 39.100 774 Climbing Chicago Center
Tue 14:14:20 43.4061 -86.6603 210° Southwest 412 763 39.900 435 Climbing Chicago Center
Tue 14:15:22 43.3050 -86.7406 210° Southwest 421 779 40.000 48 Climbing Chicago Center
Tue 14:16:25 43.2014 -86.8231 210° Southwest 433 801 40.000  Level Chicago Center
Tue 14:17:27 43.0947 -86.9094 211° Southwest 446 826 40.000  Level Chicago Center
Tue 14:18:29 42.9861 -86.9944 210° Southwest 452 837 40.000  Level Chicago Center
Tue 14:19:31 42.8539 -87.0975 210° Southwest 457 847 40.000  Level Chicago Center
Tue 14:20:33 42.7444 -87.1806 209° Southwest 454 840 40.000  Level Chicago Center
Tue 14:21:35 42.6378 -87.2650 210° Southwest 447 827 40.000  Level Chicago Center
Tue 14:22:37 42.5294 -87.3483 210° Southwest 434 803 40.000  Level Chicago Center
Tue 14:23:39 42.4283 -87.4283 210° Southwest 426 789 40.000  Level Chicago Center
Tue 14:24:41 42.3269 -87.5056 209° Southwest 422 782 40.000  Level Chicago Center
Tue 14:25:43 42.2047 -87.5994 210° Southwest 427 790 40.000  Level Chicago Center
Tue 14:26:45 42.1025 -87.6775 210° Southwest 426 789 40.000  Level Chicago Center
Tue 14:27:48 41.9986 -87.7564 209° Southwest 433 801 40.000 144 Level Chicago Center
Tue 14:28:50 41.8956 -87.8331 209° Southwest 429 795 40.300 629 Climbing Chicago Center
Tue 14:29:52 41.7925 -87.9114 210° Southwest 427 790 41.300 1.065 Climbing Chicago Center
Tue 14:30:54 41.6736 -88.0011 209° Southwest 411 761 42.500 823 Climbing Chicago Center
Tue 14:31:56 41.5778 -88.0731 209° Southwest 402 745 43.000 242 Climbing Chicago Center
Tue 14:32:58 41.4711 -88.1525 209° Southwest 418 774 43.000  Level Chicago Center
Tue 14:34:00 41.3606 -88.2361 210° Southwest 422 782 43.000  Level Chicago Center
Tue 14:35:02 41.2567 -88.3122 209° Southwest 430 797 43.000  Level Chicago Center
Tue 14:36:04 41.1528 -88.3881 209° Southwest 430 797 43.000  Level Chicago Center
Tue 14:37:06 41.0483 -88.4650 209° Southwest 432 800 43.000  Level Chicago Center
Tue 14:38:08 40.9444 -88.5414 209° Southwest 431 798 43.000  Level Chicago Center
Tue 14:39:10 40.8183 -88.6333 209° Southwest 432 800 43.000  Level Chicago Center
Tue 14:40:12 40.7133 -88.7083 208° Southwest 433 801 43.000  Level Chicago Center
Tue 14:41:15 40.6081 -88.7836 209° Southwest 433 801 43.000  Level Chicago Center
Tue 14:42:17 40.5028 -88.8594 209° Southwest 430 797 43.000  Level Chicago Center
Tue 14:43:19 40.4008 -88.9333 209° Southwest 420 777 43.000  Level Chicago Center
Tue 14:44:21 40.2989 -89.0061 209° Southwest 416 771 43.000  Level Chicago Center
Tue 14:45:23 40.1764 -89.0936 209° Southwest 416 771 43.000  Level Chicago Center
Tue 14:46:25 40.0750 -89.1633 208° Southwest 411 761 43.000  Level Chicago Center
Tue 14:46:59 40.0331 -89.1947 210° Southwest 415 769 43.000  Level Kansas City Center
Tue 14:48:01 39.9103 -89.2814 208° Southwest 416 771 43.000  Level Kansas City Center
Tue 14:49:03 39.8061 -89.3542 208° Southwest 422 782 43.000  Level Kansas City Center
Tue 14:50:05 39.6972 -89.4306 208° Southwest 423 784 43.000  Level Kansas City Center
Tue 14:51:07 39.5931 -89.5047 209° Southwest 426 789 43.000  Level Kansas City Center
Tue 14:52:09 39.4875 -89.5772 208° Southwest 428 793 43.000  Level Kansas City Center
Tue 14:53:11 39.3825 -89.6511 209° Southwest 429 795 43.000  Level Kansas City Center
Tue 14:54:13 39.2767 -89.7236 208° Southwest 432 800 43.000  Level Kansas City Center
Tue 14:55:15 39.1503 -89.8156 209° Southwest 427 790 43.000  Level Kansas City Center
Tue 14:56:17 39.0469 -89.8872 208° Southwest 424 785 43.000  Level Kansas City Center
Tue 14:57:19 38.9347 -89.9633 208° Southwest 425 787 43.000  Level Kansas City Center
Tue 14:58:21 38.8278 -90.0328 207° Southwest 422 782 43.000  Level Kansas City Center
Tue 14:59:24 38.7225 -90.1042 208° Southwest 424 785 43.000  Level Kansas City Center
Tue 15:00:26 38.6250 -90.1681 207° Southwest 430 797 43.000  Level Kansas City Center
Tue 15:01:28 38.5158 -90.2414 208° Southwest 434 803 43.000  Level Kansas City Center
Tue 15:02:30 38.4081 -90.3136 208° Southwest 434 803 43.000  Level Kansas City Center
Tue 15:03:32 38.3028 -90.3856 208° Southwest 430 797 43.000  Level Kansas City Center
Tue 15:04:34 38.1758 -90.4711 208° Southwest 430 797 43.000  Level Kansas City Center
Tue 15:05:36 38.0689 -90.5419 208° Southwest 432 800 43.000  Level Kansas City Center
Tue 15:06:38 37.9636 -90.6114 207° Southwest 429 795 43.000  Level Kansas City Center
Tue 15:07:40 37.8561 -90.6833 208° Southwest 434 803 43.000  Level Kansas City Center
Tue 15:08:42 37.7458 -90.7436 203° Southwest 431 798 43.000  Level Kansas City Center
Tue 15:09:44 37.6278 -90.7903 197° South 441 816 43.000  Level Kansas City Center
Tue 15:10:46 37.5003 -90.8436 198° South 441 816 43.000  Level Kansas City Center
Tue 15:11:48 37.3822 -90.8911 198° South 442 819 43.000  Level Kansas City Center
Tue 15:12:50 37.2447 -90.9458 198° South 434 803 43.000  Level Kansas City Center
Tue 15:13:52 37.1256 -90.9944 198° South 438 811 43.000  Level Kansas City Center
Tue 15:14:54 37.0147 -91.0389 198° South 445 824 43.000  Level Kansas City Center
Tue 15:15:56 36.8972 -91.0858 198° South 446 826 43.000  Level Kansas City Center
Tue 15:16:58 36.7692 -91.1367 198° South 443 821 43.000  Level Kansas City Center
Tue 15:18:00 36.6517 -91.1831 198° South 442 819 43.000  Level Kansas City Center
Tue 15:19:02 36.5192 -91.2347 197° South 448 830 43.000  Level Kansas City Center
Tue 15:19:56 36.4178 -91.2803 200° South 443 821 43.000  Level Memphis Center
Tue 15:20:56 36.2986 -91.3253 197° South 443 821 43.000  Level Memphis Center
Tue 15:21:56 36.1794 -91.3700 197° South 443 821 43.000  Level Memphis Center
Tue 15:22:56 36.0625 -91.4175 198° South 443 821 43.000  Level Memphis Center
Tue 15:23:56 35.9347 -91.4644 197° South 443 821 43.000  Level Memphis Center
Tue 15:24:56 35.8175 -91.5117 198° South 443 821 43.000  Level Memphis Center
Tue 15:25:56 35.6942 -91.5583 197° South 448 830 43.000  Level Memphis Center
Tue 15:26:56 35.5747 -91.6000 196° South 448 830 43.000  Level Memphis Center
Tue 15:27:56 35.4556 -91.6442 197° South 455 843 43.000  Level Memphis Center
Tue 15:28:56 35.3300 -91.6831 194° South 455 843 43.000  Level Memphis Center
Tue 15:29:56 35.2064 -91.7192 193° South 455 843 43.000  Level Memphis Center
Tue 15:30:56 35.0850 -91.7553 194° South 450 834 43.000  Level Memphis Center
Tue 15:31:56 34.9617 -91.7914 193° South 455 843 43.000  Level Memphis Center
Tue 15:32:56 34.8422 -91.8297 195° South 455 843 43.000  Level Memphis Center
Tue 15:33:56 34.7186 -91.8681 194° South 455 843 43.000  Level Memphis Center
Tue 15:34:56 34.5972 -91.9064 195° South 455 843 43.000  Level Memphis Center
Tue 15:35:56 34.4778 -91.9419 194° South 455 843 43.000  Level Memphis Center
Tue 15:36:56 34.3542 -91.9772 193° South 455 843 43.000  Level Memphis Center
Tue 15:37:56 34.2328 -92.0203 196° South 455 843 43.000  Level Memphis Center
Tue 15:38:56 34.1153 -92.0606 196° South 450 834 43.000  Level Memphis Center
Tue 15:39:56 34.0019 -92.0986 196° South 445 824 43.000  Level Memphis Center
Tue 15:41:38 33.8222 -92.1783 200° South 422 782 43.000  Level Fort Worth Center
Tue 15:42:39 33.7081 -92.2425 205° Southwest 439 813 43.000  Level Fort Worth Center
Tue 15:43:39 33.5958 -92.3067 205° Southwest 445 824 43.000  Level Fort Worth Center
Tue 15:44:39 33.4733 -92.3758 205° Southwest 445 824 43.000  Level Fort Worth Center
Tue 15:45:38 33.3564 -92.4275 200° South 450 834 43.000  Level Fort Worth Center
Tue 15:46:38 33.2281 -92.4494 188° South 457 847 43.000  Level Fort Worth Center
Tue 15:47:39 33.1036 -92.4689 187° South 457 847 43.000  Level Fort Worth Center
Tue 15:48:38 32.9792 -92.4931 189° South 463 858 43.000  Level Fort Worth Center
Tue 15:50:40 32.7225 -92.5408 189° South 457 847 43.000  Level Houston Center
Tue 15:51:42 32.5967 -92.5650 189° South 459 850 43.000  Level Houston Center
Tue 15:52:45 32.4622 -92.5908 189° South 454 840 43.000  Level Houston Center
Tue 15:53:47 32.3372 -92.6136 189° South 455 843 43.000  Level Houston Center
Tue 15:54:49 32.2114 -92.6350 188° South 455 843 43.000  Level Houston Center
Tue 15:55:51 32.0869 -92.6586 189° South 456 845 43.000  Level Houston Center
Tue 15:56:53 31.9681 -92.7044 198° South 454 840 43.000  Level Houston Center
Tue 15:57:55 31.8767 -92.8031 223° Southwest 453 838 43.000  Level Houston Center
Tue 15:58:57 31.7756 -92.9317 227° Southwest 451 835 43.000  Level Houston Center
Tue 15:59:59 31.6900 -93.0397 227° Southwest 454 840 43.000  Level Houston Center
Tue 16:01:02 31.6056 -93.1467 227° Southwest 450 834 43.000  Level Houston Center
Tue 16:02:04 31.5192 -93.2542 227° Southwest 455 843 43.000  Level Houston Center
Tue 16:03:06 31.4244 -93.3728 227° Southwest 461 855 43.000  Level Houston Center
Tue 16:04:08 31.3367 -93.4847 227° Southwest 466 863 43.000 -532 Level Houston Center
Tue 16:05:10 31.2378 -93.6053 226° Southwest 462 856 41.900 -1.645 Descending Houston Center
Tue 16:06:12 31.1544 -93.7122 228° Southwest 451 835 39.600 -1.887 Descending Houston Center
Tue 16:07:14 31.0658 -93.8203 226° Southwest 466 863 38.000 -1.452 Descending Houston Center
Tue 16:08:16 30.9753 -93.9325 227° Southwest 477 884 36.600 -2.496 Descending Houston Center
Tue 16:09:19 30.8633 -94.0686 226° Southwest 488 904 32.800 -3.408 Descending Houston Center
Tue 16:10:21 30.7683 -94.1839 226° Southwest 495 917 29.500 -3.242 Descending Houston Center
Tue 16:11:23 30.6728 -94.3011 227° Southwest 502 930 26.100 -3.625 Descending Houston Center
Tue 16:11:57 30.6056 -94.3814 226° Southwest 506 937 23.700 -3.833 Descending Houston Center
Tue 16:13:11 30.4933 -94.5222 227° Southwest 491 909 19.200 -3.513 Descending Houston Center
Tue 16:14:29 30.3997 -94.6642 233° Southwest 430 797 14.800 -2.859 Descending Houston Center
Tue 16:15:19 30.3414 -94.7550 233° Southwest 399 739 13.100 -1.016 Descending Houston Center
Tue 16:16:33 30.2719 -94.8642 234° Southwest 380 703 12.700 -878 Descending Houston Center
Tue 16:17:22 30.2186 -94.9447 233° Southwest 372 689 11.300 -1.473 Descending Houston Center
Tue 16:18:23 30.1506 -95.0475 233° Southwest 377 698 10.000 -590 Descending Houston Center
Tue 16:19:24 30.0628 -95.0972 206° Southwest 329 610 10.100 -541 Climbing Houston Center
Tue 16:20:25 29.9906 -95.1325 203° Southwest 266 492 8.900 -1.623 Descending Houston Center
Tue 16:21:26 29.9200 -95.1653 202° Southwest 271 502 6.800 -1.436 Descending Houston Center
Tue 16:22:22 29.8614 -95.1894 200° South 224 415 6.100 -390 Descending Houston Center
Tue 16:23:29 29.7967 -95.2167 200° South 224 415 6.000  Descending Houston Center
Tue 16:24:31 29.7358 -95.2408 199° South 221 409 6.100  Climbing Houston Center
Tue 16:25:26 29.7028 -95.2906 233° Southwest 218 404 6.000 -923 Descending Houston Center
Tue 16:26:28 29.6792 -95.3536 247° West 214 396 4.300 -1.581 Descending Houston Center
Tue 16:27:35 29.7108 -95.4028 307° West 247 457 2.600 -1.125 Descending Houston Center
Tue 16:28:36 29.7083 -95.3500 93° East 182 336 1.900 -836 Descending Houston Center
Tue 16:29:37 29.6733 -95.3133 138° Southeast 160 296 900 -984 Descending Houston Center

Login

Don't have an account? Register now (free) for customized features, flight alerts, and more!